Time;durP1;ratioP1;P1;durP2;ratioP2;P2;SDS_P1;SDS_P2;PMS_P1;PMS_P2;Temp;Humidity;BMP_temperature;BMP_pressure;BME280_temperature;BME280_humidity;BME280_pressure;Samples;Min_cycle;Max_cycle;Signal;HPM_P1;HPM_P2
2021/01/13 00:01:30;;;;;;;9.63;4.05;;;;;;;;;;6273157;22;20627;-74
2021/01/13 00:03:57;;;;;;;7.47;3.85;;;;;;;;;;6273708;22;19999;-76
2021/01/13 00:06:23;;;;;;;15.52;4.55;;;;;;;;;;6301310;22;20005;-74
2021/01/13 00:08:49;;;;;;;10.38;5.05;;;;;;;;;;6274060;22;20432;-74
2021/01/13 00:11:16;;;;;;;8.85;4.80;;;;;;;;;;6270602;22;19999;-74
2021/01/13 00:13:42;;;;;;;9.43;5.03;;;;;;;;;;6298070;22;20000;-74
2021/01/13 00:16:09;;;;;;;12.05;5.30;;;;;;;;;;6273164;22;20008;-76
2021/01/13 00:18:35;;;;;;;11.18;4.80;;;;;;;;;;6273259;22;20010;-74
2021/01/13 00:21:03;;;;;;;9.10;4.85;;;;;;;;;;6272513;22;20086;-74
2021/01/13 00:23:29;;;;;;;9.05;5.15;;;;;;;;;;6301248;22;20049;-74
2021/01/13 00:25:55;;;;;;;9.60;5.03;;;;;;;;;;6275236;22;20046;-74
2021/01/13 00:28:21;;;;;;;8.55;4.88;;;;;;;;;;6302902;22;20003;-74
2021/01/13 00:30:47;;;;;;;11.43;4.80;;;;;;;;;;6302371;22;20135;-74
2021/01/13 00:33:13;;;;;;;10.48;5.07;;;;;;;;;;6274710;22;20015;-74
2021/01/13 00:35:39;;;;;;;8.10;5.10;;;;;;;;;;6274730;22;20006;-74
2021/01/13 00:38:05;;;;;;;10.00;5.40;;;;;;;;;;6303262;22;19999;-73
2021/01/13 00:40:31;;;;;;;10.57;5.10;;;;;;;;;;6275440;22;20332;-74
2021/01/13 00:42:57;;;;;;;8.30;5.20;;;;;;;;;;6301334;22;19992;-74
2021/01/13 00:45:24;;;;;;;11.10;5.53;;;;;;;;;;6302292;22;20003;-74
2021/01/13 00:47:51;;;;;;;7.72;5.53;;;;;;;;;;6302023;22;20344;-74
2021/01/13 00:50:17;;;;;;;11.10;5.68;;;;;;;;;;6302363;22;20002;-74
2021/01/13 00:52:50;;;;;;;11.77;5.47;;;;;;;;;;6274875;22;20003;-73
2021/01/13 00:55:16;;;;;;;8.77;5.40;;;;;;;;;;6301279;22;20006;-76
2021/01/13 00:57:45;;;;;;;8.77;5.50;;;;;;;;;;6299659;22;19995;-76
2021/01/13 01:00:11;;;;;;;11.25;5.60;;;;;;;;;;6300662;22;20004;-76
2021/01/13 01:02:37;;;;;;;13.88;5.88;;;;;;;;;;6274008;22;20029;-76
2021/01/13 01:05:04;;;;;;;10.18;6.07;;;;;;;;;;6301656;22;20004;-76
2021/01/13 01:07:30;;;;;;;12.85;5.82;;;;;;;;;;6302383;22;20086;-76
2021/01/13 01:09:56;;;;;;;13.43;5.47;;;;;;;;;;6274785;22;20034;-76
2021/01/13 01:12:22;;;;;;;9.80;6.32;;;;;;;;;;6273391;22;20010;-76
2021/01/13 01:14:48;;;;;;;7.88;5.32;;;;;;;;;;6302396;22;20324;-76
2021/01/13 01:17:15;;;;;;;9.45;5.50;;;;;;;;;;6301400;22;19996;-76
2021/01/13 01:19:41;;;;;;;9.45;5.95;;;;;;;;;;6274450;22;20042;-76
2021/01/13 01:22:07;;;;;;;11.43;5.53;;;;;;;;;;6301239;22;19995;-76
2021/01/13 01:24:33;;;;;;;9.35;5.20;;;;;;;;;;6274476;22;20003;-76
2021/01/13 01:26:59;;;;;;;11.38;6.85;;;;;;;;;;6301463;22;20014;-76
2021/01/13 01:29:25;;;;;;;15.32;9.27;;;;;;;;;;6274164;22;20007;-76
2021/01/13 01:31:52;;;;;;;19.90;9.85;;;;;;;;;;6273303;22;20007;-76
2021/01/13 01:34:18;;;;;;;13.18;7.32;;;;;;;;;;6301433;22;20007;-76
2021/01/13 01:36:44;;;;;;;12.82;6.20;;;;;;;;;;6300809;22;20034;-76
2021/01/13 01:39:10;;;;;;;12.07;6.85;;;;;;;;;;6301798;22;19999;-73
2021/01/13 01:41:36;;;;;;;14.50;7.40;;;;;;;;;;6300633;22;20000;-76
2021/01/13 01:44:02;;;;;;;11.23;5.82;;;;;;;;;;6301865;22;20395;-76
2021/01/13 01:46:30;;;;;;;8.63;5.32;;;;;;;;;;6301498;22;20032;-72
2021/01/13 01:48:57;;;;;;;10.52;5.10;;;;;;;;;;6301048;22;20424;-75
2021/01/13 01:51:23;;;;;;;;;;;;;;;;;;6300976;22;20022;-74
2021/01/13 01:53:52;;;;;;;9.02;4.13;;;;;;;;;;6301115;22;19906;-74
2021/01/13 01:56:18;;;;;;;9.70;4.28;;;;;;;;;;6300239;22;20003;-74
2021/01/13 01:58:47;;;;;;;8.95;4.07;;;;;;;;;;6301000;22;20070;-74
2021/01/13 02:01:13;;;;;;;9.15;4.30;;;;;;;;;;6300315;22;20003;-74
2021/01/13 02:03:42;;;;;;;8.98;3.92;;;;;;;;;;6273266;22;20416;-74
2021/01/13 02:06:09;;;;;;;8.68;4.40;;;;;;;;;;6300600;22;20007;-74
2021/01/13 02:08:39;;;;;;;7.30;4.20;;;;;;;;;;6300682;22;20007;-74
2021/01/13 02:11:16;;;;;;;9.38;4.38;;;;;;;;;;6297720;22;20045;-73
2021/01/13 02:13:42;;;;;;;5.88;3.60;;;;;;;;;;6300702;22;20003;-74
2021/01/13 02:16:09;;;;;;;7.05;3.83;;;;;;;;;;6301057;22;19999;-74
2021/01/13 02:18:36;;;;;;;10.70;4.22;;;;;;;;;;6273026;22;20026;-73
2021/01/13 02:21:04;;;;;;;7.10;3.73;;;;;;;;;;6300109;22;20613;-74
2021/01/13 02:23:30;;;;;;;;;;;;;;;;;;6301507;22;20007;-74
2021/01/13 02:26:16;;;;;;;10.45;3.60;;;;;;;;;;6299261;22;19970;-74
2021/01/13 02:28:46;;;;;;;6.35;3.80;;;;;;;;;;6220929;22;20029;-74
2021/01/13 02:31:25;;;;;;;7.10;3.97;;;;;;;;;;6257484;22;20014;-74
2021/01/13 02:33:53;;;;;;;8.00;3.80;;;;;;;;;;6299894;22;20003;-74
2021/01/13 02:36:19;;;;;;;6.55;3.50;;;;;;;;;;6274017;22;20007;-74
2021/01/13 02:38:51;;;;;;;7.82;3.72;;;;;;;;;;6273512;22;20340;-75
2021/01/13 02:41:18;;;;;;;5.85;3.40;;;;;;;;;;6300715;22;20427;-73
2021/01/13 02:43:55;;;;;;;5.22;3.00;;;;;;;;;;6301492;22;19999;-74
2021/01/13 02:46:40;;;;;;;7.65;3.25;;;;;;;;;;6301368;22;20078;-74
2021/01/13 02:49:08;;;;;;;6.90;3.42;;;;;;;;;;6272084;22;20003;-74
2021/01/13 02:51:36;;;;;;;7.32;3.28;;;;;;;;;;6300426;22;20427;-74
2021/01/13 02:54:02;;;;;;;;;;;;;;;;;;6301301;22;20423;-74
2021/01/13 02:56:41;;;;;;;8.85;3.25;;;;;;;;;;6301403;22;19947;-74
2021/01/13 02:59:09;;;;;;;8.30;3.33;;;;;;;;;;6274399;22;20011;-74
2021/01/13 03:01:34;;;;;;;;;;;;;;;;;;6301056;22;20001;-73
2021/01/13 03:04:01;;;;;;;6.68;3.10;;;;;;;;;;6302022;22;19922;-74
2021/01/13 03:06:29;;;;;;;7.60;3.17;;;;;;;;;;6275633;22;20069;-74
2021/01/13 03:09:02;;;;;;;8.90;3.70;;;;;;;;;;6304320;22;19999;-74
2021/01/13 03:11:28;;;;;;;6.65;3.30;;;;;;;;;;6303818;22;20074;-74
2021/01/13 03:13:56;;;;;;;7.60;3.53;;;;;;;;;;6304358;22;20003;-74
2021/01/13 03:16:22;;;;;;;6.38;3.60;;;;;;;;;;6304447;22;19999;-74
2021/01/13 03:18:59;;;;;;;9.35;3.22;;;;;;;;;;6304294;22;20078;-76
2021/01/13 03:21:27;;;;;;;9.98;3.55;;;;;;;;;;6303515;22;20005;-74
2021/01/13 03:24:12;;;;;;;8.63;3.30;;;;;;;;;;6277240;22;20030;-74
2021/01/13 03:26:39;;;;;;;6.65;3.38;;;;;;;;;;6304321;22;19999;-74
2021/01/13 03:29:07;;;;;;;8.23;3.47;;;;;;;;;;6304465;22;20019;-74
2021/01/13 03:31:44;;;;;;;11.68;3.75;;;;;;;;;;6303217;22;20018;-74
2021/01/13 03:34:22;;;;;;;6.67;3.67;;;;;;;;;;6303868;22;20389;-74
2021/01/13 03:37:01;;;;;;;7.93;3.63;;;;;;;;;;6304305;22;20221;-74
2021/01/13 03:39:32;;;;;;;10.40;3.30;;;;;;;;;;6276956;22;20003;-75
2021/01/13 03:42:07;;;;;;;12.13;4.03;;;;;;;;;;6303581;22;19995;-74
2021/01/13 03:44:34;;;;;;;10.57;3.38;;;;;;;;;;6304250;22;19999;-74
2021/01/13 03:47:18;;;;;;;8.53;3.33;;;;;;;;;;6303889;22;20010;-74
2021/01/13 03:50:08;;;;;;;7.70;3.83;;;;;;;;;;6276340;22;20221;-74
2021/01/13 03:52:39;;;;;;;8.50;3.58;;;;;;;;;;6284026;22;20080;-74
2021/01/13 03:55:05;;;;;;;7.60;3.38;;;;;;;;;;6304243;22;20006;-74
2021/01/13 03:57:52;;;;;;;7.13;3.33;;;;;;;;;;6304196;22;19999;-74
2021/01/13 04:00:20;;;;;;;8.32;3.53;;;;;;;;;;6306189;22;20195;-75
2021/01/13 04:03:05;;;;;;;7.75;3.10;;;;;;;;;;6276728;22;20006;-74
2021/01/13 04:05:32;;;;;;;7.30;2.95;;;;;;;;;;6303753;22;20014;-73
2021/01/13 04:07:58;;;;;;;6.65;3.10;;;;;;;;;;6276478;22;20022;-76
2021/01/13 04:10:24;;;;;;;7.97;3.50;;;;;;;;;;6303651;22;20067;-74
2021/01/13 04:12:50;;;;;;;7.40;3.40;;;;;;;;;;6302071;22;20011;-74
2021/01/13 04:15:19;;;;;;;6.93;3.20;;;;;;;;;;6275043;22;20015;-73
2021/01/13 04:17:46;;;;;;;10.80;3.00;;;;;;;;;;6301862;22;20049;-74
2021/01/13 04:20:12;;;;;;;7.13;3.15;;;;;;;;;;6302584;22;19995;-74
2021/01/13 04:22:38;;;;;;;8.20;3.10;;;;;;;;;;6301972;22;19996;-74
2021/01/13 04:25:05;;;;;;;9.35;3.38;;;;;;;;;;6275429;22;20057;-74
2021/01/13 04:27:31;;;;;;;8.00;3.13;;;;;;;;;;6275332;22;20011;-74
2021/01/13 04:29:57;;;;;;;10.60;3.20;;;;;;;;;;6302864;22;20010;-74
2021/01/13 04:32:23;;;;;;;7.68;3.05;;;;;;;;;;6301800;22;20007;-74
2021/01/13 04:34:49;;;;;;;8.38;2.92;;;;;;;;;;6275072;22;20011;-74
2021/01/13 04:37:17;;;;;;;10.95;3.72;;;;;;;;;;6302367;22;20069;-74
2021/01/13 04:39:43;;;;;;;8.10;3.30;;;;;;;;;;6275217;22;20000;-74
2021/01/13 04:42:11;;;;;;;8.70;3.20;;;;;;;;;;6274682;22;20003;-74
2021/01/13 04:44:37;;;;;;;;;;;;;;;;;;6303352;22;20104;-74
2021/01/13 04:47:05;;;;;;;5.32;2.92;;;;;;;;;;6302946;22;19941;-74
2021/01/13 04:49:32;;;;;;;7.03;3.28;;;;;;;;;;6302997;22;20466;-74
2021/01/13 04:52:03;;;;;;;8.13;2.63;;;;;;;;;;6274579;22;20003;-74
2021/01/13 04:54:31;;;;;;;4.95;3.20;;;;;;;;;;6302745;22;20077;-75
2021/01/13 04:57:17;;;;;;;6.57;3.20;;;;;;;;;;6275402;22;20000;-74
2021/01/13 04:59:55;;;;;;;9.93;3.80;;;;;;;;;;6274987;22;19996;-74
2021/01/13 05:02:38;;;;;;;8.25;3.63;;;;;;;;;;6301506;22;20045;-73
2021/01/13 05:05:06;;;;;;;9.88;3.40;;;;;;;;;;6302308;22;20007;-73
2021/01/13 05:07:32;;;;;;;10.65;3.80;;;;;;;;;;6302565;22;20454;-73
2021/01/13 05:10:08;;;;;;;6.85;3.28;;;;;;;;;;6274433;22;20030;-73
2021/01/13 05:12:49;;;;;;;9.18;3.50;;;;;;;;;;6301977;22;20006;-74
2021/01/13 05:15:20;;;;;;;6.57;3.45;;;;;;;;;;6302576;22;20043;-74
2021/01/13 05:18:06;;;;;;;7.20;3.40;;;;;;;;;;6302273;22;20516;-75
2021/01/13 05:20:55;;;;;;;9.13;3.90;;;;;;;;;;6302415;22;20447;-74
2021/01/13 05:23:22;;;;;;;11.38;3.70;;;;;;;;;;6282404;22;20000;-74
2021/01/13 05:25:53;;;;;;;11.75;3.47;;;;;;;;;;6302406;22;20025;-74
2021/01/13 05:28:26;;;;;;;10.98;4.45;;;;;;;;;;6302354;22;20021;-74
2021/01/13 05:30:53;;;;;;;8.15;4.40;;;;;;;;;;6274084;22;20624;-76
2021/01/13 05:33:21;;;;;;;12.50;4.47;;;;;;;;;;6273147;22;20011;-73
2021/01/13 05:35:48;;;;;;;7.70;4.10;;;;;;;;;;6301250;22;20013;-73
2021/01/13 05:38:14;;;;;;;12.18;3.88;;;;;;;;;;6301744;22;20002;-73
2021/01/13 05:40:47;;;;;;;11.45;4.82;;;;;;;;;;6300434;22;19995;-74
2021/01/13 05:43:14;;;;;;;14.20;6.40;;;;;;;;;;6302122;22;20006;-74
2021/01/13 05:45:40;;;;;;;10.93;4.95;;;;;;;;;;6274651;22;20097;-73
2021/01/13 05:48:27;;;;;;;12.23;5.15;;;;;;;;;;6275085;22;20057;-74
2021/01/13 05:50:54;;;;;;;7.40;4.80;;;;;;;;;;6300889;22;20006;-74
2021/01/13 05:53:23;;;;;;;12.43;4.85;;;;;;;;;;6301820;22;20007;-74
2021/01/13 05:55:51;;;;;;;20.83;7.57;;;;;;;;;;6274617;22;20007;-74
2021/01/13 05:58:21;;;;;;;20.40;6.60;;;;;;;;;;6301992;22;20030;-74
2021/01/13 06:00:49;;;;;;;16.88;6.30;;;;;;;;;;6299593;22;20002;-74
2021/01/13 06:03:19;;;;;;;12.23;5.75;;;;;;;;;;6300304;22;19999;-75
2021/01/13 06:05:56;;;;;;;11.02;5.18;;;;;;;;;;6272325;22;20031;-74
2021/01/13 06:08:26;;;;;;;14.02;6.00;;;;;;;;;;6301460;22;20435;-75
2021/01/13 06:10:55;;;;;;;17.55;5.38;;;;;;;;;;6301346;22;20443;-74
2021/01/13 06:13:27;;;;;;;12.68;5.07;;;;;;;;;;6301933;22;20060;-73
2021/01/13 06:15:57;;;;;;;11.95;5.57;;;;;;;;;;6301784;22;20003;-74
2021/01/13 06:18:23;;;;;;;13.90;5.75;;;;;;;;;;6301691;22;20061;-74
2021/01/13 06:20:50;;;;;;;16.52;5.63;;;;;;;;;;6300813;22;20000;-74
2021/01/13 06:23:17;;;;;;;10.48;5.57;;;;;;;;;;6301246;22;20331;-74
2021/01/13 06:25:43;;;;;;;14.18;5.80;;;;;;;;;;6301730;22;20078;-74
2021/01/13 06:28:13;;;;;;;16.40;6.17;;;;;;;;;;6274188;22;20015;-74
2021/01/13 06:30:40;;;;;;;16.92;6.38;;;;;;;;;;6301550;22;20288;-74
2021/01/13 06:33:08;;;;;;;14.02;6.25;;;;;;;;;;6273516;22;20090;-75
2021/01/13 06:35:34;;;;;;;;;;;;;;;;;;6302194;22;20056;-74
2021/01/13 06:38:00;;;;;;;10.77;6.70;;;;;;;;;;6273898;22;19981;-74
2021/01/13 06:40:26;;;;;;;12.77;6.35;;;;;;;;;;6301301;22;19995;-74
2021/01/13 06:42:52;;;;;;;12.98;6.63;;;;;;;;;;6301469;22;20067;-74
2021/01/13 06:45:31;;;;;;;11.25;6.40;;;;;;;;;;6301556;22;20060;-74
2021/01/13 06:47:57;;;;;;;12.07;6.03;;;;;;;;;;6301370;22;20006;-74
2021/01/13 06:50:35;;;;;;;14.63;7.28;;;;;;;;;;6301405;22;19999;-74
2021/01/13 06:53:06;;;;;;;12.60;6.47;;;;;;;;;;6300548;22;20070;-74
2021/01/13 06:55:33;;;;;;;12.02;6.00;;;;;;;;;;6301325;22;20003;-74
2021/01/13 06:58:15;;;;;;;17.50;7.35;;;;;;;;;;6274083;22;20007;-74
2021/01/13 07:00:45;;;;;;;16.17;6.68;;;;;;;;;;6301091;22;20003;-73
2021/01/13 07:03:21;;;;;;;12.60;6.97;;;;;;;;;;6300732;22;19995;-74
2021/01/13 07:05:47;;;;;;;14.23;7.78;;;;;;;;;;6301409;22;20007;-74
2021/01/13 07:08:13;;;;;;;22.05;11.30;;;;;;;;;;6301061;22;20359;-75
2021/01/13 07:10:39;;;;;;;26.70;12.65;;;;;;;;;;6301545;22;20443;-73
2021/01/13 07:13:07;;;;;;;15.35;8.50;;;;;;;;;;6300426;22;20010;-74
2021/01/13 07:15:33;;;;;;;32.67;16.70;;;;;;;;;;6301060;22;20056;-74
2021/01/13 07:18:01;;;;;;;29.30;15.57;;;;;;;;;;6301287;22;20451;-75
2021/01/13 07:20:29;;;;;;;20.40;8.75;;;;;;;;;;6301288;22;20070;-75
2021/01/13 07:22:55;;;;;;;15.80;8.02;;;;;;;;;;6300498;22;20003;-75
2021/01/13 07:25:21;;;;;;;13.02;7.20;;;;;;;;;;6273886;22;20316;-74
2021/01/13 07:27:48;;;;;;;18.48;9.45;;;;;;;;;;6301261;22;20609;-75
2021/01/13 07:30:15;;;;;;;16.10;7.63;;;;;;;;;;6301109;22;20003;-74
2021/01/13 07:32:42;;;;;;;18.63;7.60;;;;;;;;;;6299884;22;20339;-73
2021/01/13 07:35:09;;;;;;;14.43;7.03;;;;;;;;;;6301058;22;20603;-74
2021/01/13 07:37:38;;;;;;;17.45;7.85;;;;;;;;;;6301040;22;19996;-74
2021/01/13 07:40:23;;;;;;;14.25;7.20;;;;;;;;;;6301174;22;20391;-74
2021/01/13 07:42:49;;;;;;;19.35;6.63;;;;;;;;;;6300955;22;19999;-74
2021/01/13 07:45:16;;;;;;;10.57;6.93;;;;;;;;;;6301026;22;20006;-74
2021/01/13 07:47:57;;;;;;;13.32;7.55;;;;;;;;;;6301357;22;20087;-73
2021/01/13 07:50:23;;;;;;;16.40;7.13;;;;;;;;;;6300988;22;20502;-73
2021/01/13 07:52:51;;;;;;;13.20;7.45;;;;;;;;;;6273048;22;20102;-74
2021/01/13 07:55:17;;;;;;;;;;;;;;;;;;6301545;22;20008;-75
2021/01/13 07:57:54;;;;;;;15.65;7.28;;;;;;;;;;6273316;22;19899;-74
2021/01/13 08:00:39;;;;;;;14.20;8.10;;;;;;;;;;6273815;22;19995;-73
2021/01/13 08:03:11;;;;;;;19.48;8.20;;;;;;;;;;6300584;22;20022;-73
2021/01/13 08:05:57;;;;;;;11.80;7.20;;;;;;;;;;6300988;22;20074;-75
2021/01/13 08:08:35;;;;;;;12.05;7.20;;;;;;;;;;6198059;22;20011;-75
2021/01/13 08:11:03;;;;;;;14.13;7.05;;;;;;;;;;6273190;22;20007;-74
2021/01/13 08:13:29;;;;;;;;;;;;;;;;;;6301542;22;20014;-75
2021/01/13 08:16:14;;;;;;;17.38;8.15;;;;;;;;;;6300846;22;19985;-75
2021/01/13 08:19:18;;;;;;;17.33;6.95;;;;;;;;;;6300895;22;19995;-75
2021/01/13 08:21:53;;;;;;;14.40;7.90;;;;;;;;;;6120983;23;20005;-74
2021/01/13 08:24:29;;;;;;;16.58;7.60;;;;;;;;;;6146391;23;20002;-76
2021/01/13 08:26:58;;;;;;;17.17;8.30;;;;;;;;;;6239341;22;20034;-73
2021/01/13 08:29:29;;;;;;;13.65;6.97;;;;;;;;;;6273723;22;20053;-74
2021/01/13 08:32:06;;;;;;;18.15;9.40;;;;;;;;;;6300189;22;20497;-73
2021/01/13 08:34:45;;;;;;;15.17;7.03;;;;;;;;;;6273243;22;20045;-75
2021/01/13 08:37:12;;;;;;;16.65;8.68;;;;;;;;;;6301270;22;19995;-76
2021/01/13 08:39:38;;;;;;;15.60;8.80;;;;;;;;;;6273247;22;20343;-76
2021/01/13 08:42:23;;;;;;;14.85;8.32;;;;;;;;;;6300092;22;20597;-74
2021/01/13 08:44:50;;;;;;;13.23;6.68;;;;;;;;;;6274173;22;20324;-73
2021/01/13 08:47:17;;;;;;;12.90;6.10;;;;;;;;;;6302570;22;20061;-76
2021/01/13 08:49:43;;;;;;;16.65;5.82;;;;;;;;;;6275091;22;20034;-73
2021/01/13 08:52:09;;;;;;;13.73;6.40;;;;;;;;;;6302372;22;20031;-73
2021/01/13 08:54:35;;;;;;;12.48;5.90;;;;;;;;;;6302538;22;20026;-74
2021/01/13 08:57:03;;;;;;;14.27;6.38;;;;;;;;;;6302431;22;20023;-73
2021/01/13 08:59:40;;;;;;;10.07;5.43;;;;;;;;;;6302552;22;20003;-73
2021/01/13 09:02:07;;;;;;;22.58;9.07;;;;;;;;;;6301647;22;19999;-75
2021/01/13 09:04:33;;;;;;;;;;;;;;;;;;6303017;22;20026;-73
2021/01/13 09:07:02;;;;;;;11.18;5.65;;;;;;;;;;6275060;22;19913;-74
2021/01/13 09:09:30;;;;;;;11.43;5.30;;;;;;;;;;6302585;22;20042;-75
2021/01/13 09:11:56;;;;;;;11.68;5.38;;;;;;;;;;6274479;22;20017;-75
2021/01/13 09:14:24;;;;;;;9.93;4.53;;;;;;;;;;6274925;22;20007;-74
2021/01/13 09:16:50;;;;;;;13.90;5.47;;;;;;;;;;6302427;22;20009;-75
2021/01/13 09:19:23;;;;;;;10.07;5.40;;;;;;;;;;6302295;22;20003;-75
2021/01/13 09:21:58;;;;;;;12.32;5.45;;;;;;;;;;6301529;22;20003;-75
2021/01/13 09:24:25;;;;;;;10.15;4.25;;;;;;;;;;6274761;22;20003;-74
2021/01/13 09:26:53;;;;;;;11.63;4.60;;;;;;;;;;6274741;22;20006;-75
2021/01/13 09:29:20;;;;;;;9.98;4.82;;;;;;;;;;6302470;22;20003;-74
2021/01/13 09:32:05;;;;;;;15.38;6.65;;;;;;;;;;6299066;22;20007;-74
2021/01/13 09:34:32;;;;;;;13.88;5.88;;;;;;;;;;6302223;22;20106;-75
2021/01/13 09:36:59;;;;;;;9.63;5.53;;;;;;;;;;6302622;22;20070;-76
2021/01/13 09:39:38;;;;;;;11.07;5.55;;;;;;;;;;6274640;22;20094;-74
2021/01/13 09:42:05;;;;;;;12.85;5.10;;;;;;;;;;6302013;22;20002;-73
2021/01/13 09:44:32;;;;;;;10.50;3.93;;;;;;;;;;6302427;22;19999;-75
2021/01/13 09:46:59;;;;;;;14.40;5.90;;;;;;;;;;6302485;22;20050;-75
2021/01/13 09:49:25;;;;;;;13.30;5.80;;;;;;;;;;6275538;22;20483;-75
2021/01/13 09:51:51;;;;;;;12.18;5.68;;;;;;;;;;6301808;22;20021;-79
2021/01/13 09:54:21;;;;;;;13.27;5.70;;;;;;;;;;6302858;22;20015;-75
2021/01/13 09:56:54;;;;;;;13.30;5.82;;;;;;;;;;6302691;22;20003;-77
2021/01/13 09:59:24;;;;;;;13.30;6.43;;;;;;;;;;6303156;22;20003;-78
2021/01/13 10:01:54;;;;;;;13.80;6.07;;;;;;;;;;6274587;22;20059;-75
2021/01/13 10:04:21;;;;;;;12.63;5.90;;;;;;;;;;6275590;22;19999;-76
2021/01/13 10:06:52;;;;;;;14.40;6.53;;;;;;;;;;6302543;22;19999;-75
2021/01/13 10:09:18;;;;;;;13.13;5.72;;;;;;;;;;6302279;22;20006;-76
2021/01/13 10:11:45;;;;;;;14.35;5.70;;;;;;;;;;6302247;22;20446;-77
2021/01/13 10:14:13;;;;;;;10.73;5.65;;;;;;;;;;6275298;22;20090;-76
2021/01/13 10:16:43;;;;;;;18.33;5.55;;;;;;;;;;6303134;22;20355;-78
2021/01/13 10:19:09;;;;;;;9.45;4.40;;;;;;;;;;6303318;22;19996;-76
2021/01/13 10:21:40;;;;;;;10.30;4.90;;;2.50;99.90;;;;;;6275254;22;20000;-77
2021/01/13 10:24:11;;;;;;;10.25;4.65;;;3.20;99.90;;;;;;6276305;22;20002;-77
2021/01/13 10:26:39;;;;;;;12.68;4.97;;;3.20;99.90;;;;;;6275506;22;20060;-77
2021/01/13 10:29:05;;;;;;;;;;;3.20;99.90;;;;;;6275678;22;20003;-76
2021/01/13 10:31:33;;;;;;;15.57;4.40;;;3.20;99.90;;;;;;6302403;22;19914;-78
2021/01/13 10:33:59;;;;;;;12.05;4.32;;;3.10;99.90;;;;;;6303289;22;20781;-76
2021/01/13 10:36:32;;;;;;;13.70;4.85;;;3.00;99.90;;;;;;6302790;22;20004;-78
2021/01/13 10:38:59;;;;;;;12.73;4.40;;;2.90;99.90;;;;;;6302725;22;19999;-78
2021/01/13 10:41:34;;;;;;;13.52;4.78;;;2.90;99.90;;;;;;6302140;22;20002;-78
2021/01/13 10:44:06;;;;;;;8.95;4.28;;;2.90;99.90;;;;;;6302420;22;19999;-77
2021/01/13 10:46:41;;;;;;;8.10;3.70;;;2.90;99.90;;;;;;6275248;22;20000;-77
2021/01/13 10:49:14;;;;;;;11.10;4.18;;;2.90;99.90;;;;;;6302893;22;20455;-75
2021/01/13 10:51:46;;;;;;;12.68;4.22;;;2.90;99.90;;;;;;6274482;22;20145;-76
2021/01/13 10:54:17;;;;;;;8.85;4.25;;;3.00;99.90;;;;;;6274965;22;20439;-75
2021/01/13 10:56:44;;;;;;;6.90;3.80;;;3.00;99.90;;;;;;6301364;22;19999;-75
2021/01/13 10:59:16;;;;;;;7.60;3.93;;;3.30;99.90;;;;;;6274615;22;20394;-77
2021/01/13 11:01:46;;;;;;;7.78;3.55;;;3.30;99.90;;;;;;6301517;22;20300;-78
2021/01/13 11:04:34;;;;;;;9.60;3.72;;;3.50;99.90;;;;;;6302106;22;19995;-77
2021/01/13 11:07:05;;;;;;;9.98;3.60;;;3.40;99.90;;;;;;6274662;22;20454;-77
2021/01/13 11:09:32;;;;;;;8.77;3.30;;;3.20;99.90;;;;;;6301839;22;20023;-77
2021/01/13 11:11:59;;;;;;;11.77;4.55;;;3.00;99.90;;;;;;6300709;22;20447;-77
2021/01/13 11:14:43;;;;;;;7.35;3.83;;;3.10;99.90;;;;;;6300531;22;20022;-78
2021/01/13 11:17:09;;;;;;;7.63;3.53;;;3.10;99.90;;;;;;6301278;22;20000;-79
2021/01/13 11:19:36;;;;;;;6.18;3.10;;;3.00;99.90;;;;;;6273361;22;20050;-77
2021/01/13 11:22:03;;;;;;;9.23;3.28;;;3.20;99.90;;;;;;6273438;22;20440;-79
2021/01/13 11:24:29;;;;;;;6.47;2.95;;;3.30;99.90;;;;;;6301892;22;20014;-81
2021/01/13 11:26:59;;;;;;;11.02;3.20;;;3.30;99.90;;;;;;6275533;22;20027;-80
2021/01/13 11:29:28;;;;;;;10.20;4.15;;;3.70;99.90;;;;;;6302043;22;20068;-79
2021/01/13 11:31:55;;;;;;;8.13;3.30;;;3.50;99.90;;;;;;6300589;22;20094;-79
2021/01/13 11:34:22;;;;;;;10.77;3.63;;;3.50;99.90;;;;;;6273805;22;20003;-78
2021/01/13 11:36:55;;;;;;;;;;;3.40;99.90;;;;;;6273855;22;20045;-77
2021/01/13 11:39:26;;;;;;;6.07;2.55;;;3.40;99.90;;;;;;6301883;22;19899;-80
2021/01/13 11:42:27;;;;;;;6.68;2.85;;;3.80;99.90;;;;;;6300119;22;20002;-75
2021/01/13 11:45:16;;;;;;;6.75;2.80;;;3.80;99.90;;;;;;6300510;22;20007;-77
2021/01/13 11:47:55;;;;;;;4.65;2.60;;;4.00;99.90;;;;;;6301267;22;19999;-77
2021/01/13 11:50:25;;;;;;;5.82;2.65;;;4.00;99.90;;;;;;6301069;22;19999;-76
2021/01/13 11:52:58;;;;;;;8.68;2.63;;;3.80;99.90;;;;;;6300194;22;20000;-78
2021/01/13 11:55:31;;;;;;;9.73;2.67;;;3.80;99.90;;;;;;6301115;22;20443;-77
2021/01/13 11:57:58;;;;;;;8.32;2.70;;;3.90;99.90;;;;;;6273607;22;20019;-75
2021/01/13 12:00:29;;;;;;;6.18;2.33;;;3.80;99.90;;;;;;6300548;22;19999;-77
2021/01/13 12:03:00;;;;;;;6.78;2.15;;;4.00;99.90;;;;;;6300097;22;20022;-78
2021/01/13 12:05:30;;;;;;;9.40;2.10;;;4.20;99.90;;;;;;6272964;22;20340;-77
2021/01/13 12:07:57;;;;;;;8.25;2.13;;;4.40;99.90;;;;;;6300775;22;20026;-78
2021/01/13 12:10:36;;;;;;;11.75;2.10;;;4.30;99.90;;;;;;6300910;22;20049;-77
2021/01/13 12:13:15;;;;;;;6.00;1.70;;;4.10;99.90;;;;;;6299461;22;20082;-78
2021/01/13 12:15:57;;;;;;;10.38;2.08;;;4.10;99.90;;;;;;6273377;22;20090;-78
2021/01/13 12:18:23;;;;;;;5.30;1.60;;;;;;;;;;6300774;22;20007;-77
2021/01/13 12:20:53;;;;;;;7.95;2.00;;;;;;;;;;6273693;22;20006;-78
2021/01/13 12:23:31;;;;;;;9.38;1.73;;;;;;;;;;6302804;22;20000;-77
2021/01/13 12:26:30;;;;;;;5.35;2.05;;;;;;;;;;6303218;22;20026;-78
2021/01/13 12:29:13;;;;;;;7.72;1.60;;;;;;;;;;6192953;22;20015;-79
2021/01/13 12:31:40;;;;;;;5.22;1.85;;;;;;;;;;6301701;22;20034;-76
2021/01/13 12:34:14;;;;;;;6.80;1.70;;;;;;;;;;6275319;22;20003;-79
2021/01/13 12:36:44;;;;;;;6.75;2.33;;;;;;;;;;6273529;22;20014;-76
2021/01/13 12:39:21;;;;;;;9.45;2.75;;;;;;;;;;6275135;22;20450;-78
2021/01/13 12:41:49;;;;;;;5.53;1.80;;;;;;;;;;6273655;22;20037;-78
2021/01/13 12:44:15;;;;;;;8.45;2.33;;;4.30;99.90;;;;;;6302180;22;19999;-78
2021/01/13 12:46:46;;;;;;;8.18;3.00;;;4.50;99.90;;;;;;6274483;22;20011;-79
2021/01/13 12:49:12;;;;;;;24.83;10.65;;;4.40;99.90;;;;;;6274832;22;20003;-77
2021/01/13 12:51:38;;;;;;;6.00;2.00;;;4.20;99.90;;;;;;6301502;22;20010;-78
2021/01/13 12:54:04;;;;;;;9.13;2.45;;;4.50;99.90;;;;;;6301835;22;20003;-77
2021/01/13 12:56:37;;;;;;;7.45;2.13;;;;;;;;;;6301988;22;20443;-77
2021/01/13 12:59:03;;;;;;;4.90;1.73;;;;;;;;;;6301792;22;19996;-78
2021/01/13 13:01:36;;;;;;;2.83;0.97;;;;;;;;;;6300988;22;20498;-79
2021/01/13 13:04:02;;;;;;;7.13;1.55;;;;;;;;;;6274132;22;20006;-79
2021/01/13 13:06:29;;;;;;;4.47;1.40;;;;;;;;;;6274377;22;20004;-76
2021/01/13 13:08:56;;;;;;;4.60;1.50;;;;;;;;;;6274554;22;20038;-78
2021/01/13 13:11:24;;;;;;;4.85;1.40;;;;;;;;;;6301199;22;20395;-78
2021/01/13 13:13:50;;;;;;;10.00;1.45;;;;;;;;;;6301569;22;20007;-78
2021/01/13 13:16:19;;;;;;;4.55;1.48;;;;;;;;;;6302025;22;20038;-77
2021/01/13 13:18:45;;;;;;;6.55;1.60;;;;;;;;;;6301837;22;20312;-79
2021/01/13 13:21:15;;;;;;;7.13;1.63;;;;;;;;;;6273567;22;19999;-80
2021/01/13 13:23:41;;;;;;;4.43;1.60;;;;;;;;;;6303377;22;19999;-78
2021/01/13 13:26:11;;;;;;;7.25;1.70;;;;;;;;;;6274535;22;20007;-77
2021/01/13 13:28:38;;;;;;;8.13;1.90;;;;;;;;;;6274418;22;20000;-79
2021/01/13 13:31:04;;;;;;;6.18;1.50;;;;;;;;;;6300395;22;20491;-79
2021/01/13 13:33:30;;;;;;;9.60;2.40;;;;;;;;;;6301099;22;20104;-79
2021/01/13 13:35:57;;;;;;;5.00;1.42;;;;;;;;;;6301622;22;20034;-79
2021/01/13 13:38:23;;;;;;;5.10;1.70;;;;;;;;;;6273787;22;19999;-77
2021/01/13 13:40:50;;;;;;;6.03;1.85;;;5.00;99.90;;;;;;6300284;22;19999;-78
2021/01/13 13:43:16;;;;;;;6.63;2.30;;;;;;;;;;6299109;22;19999;-79
2021/01/13 13:45:42;;;;;;;7.82;1.95;;;;;;;;;;6274059;22;20367;-78
2021/01/13 13:48:08;;;;;;;5.65;1.80;;;;;;;;;;6301441;22;20007;-79
2021/01/13 13:50:34;;;;;;;4.28;1.63;;;;;;;;;;6273690;22;20011;-78
2021/01/13 13:53:00;;;;;;;8.30;2.35;;;;;;;;;;6273574;22;20462;-79
2021/01/13 13:55:27;;;;;;;8.93;2.20;;;;;;;;;;6301085;22;20027;-79
2021/01/13 13:57:53;;;;;;;5.30;2.30;;;;;;;;;;6293995;22;20056;-78
2021/01/13 14:00:19;;;;;;;7.35;1.85;;;;;;;;;;6301638;22;19995;-79
2021/01/13 14:02:45;;;;;;;7.43;2.42;;;;;;;;;;6272834;22;20002;-78
2021/01/13 14:05:12;;;;;;;6.93;2.38;;;;;;;;;;6300239;22;20078;-79
2021/01/13 14:07:38;;;;;;;11.93;1.63;;;;;;;;;;6301371;22;20056;-78
2021/01/13 14:10:05;;;;;;;8.23;2.47;;;;;;;;;;6300938;22;20000;-79
2021/01/13 14:12:31;;;;;;;5.67;2.13;;;;;;;;;;6299139;22;20017;-78
2021/01/13 14:14:57;;;;;;;5.13;2.10;;;;;;;;;;6272531;22;20314;-79
2021/01/13 14:17:23;;;;;;;7.10;2.55;;;;;;;;;;6300134;22;19998;-79
2021/01/13 14:19:49;;;;;;;6.88;2.65;;;;;;;;;;6301050;22;20007;-79
2021/01/13 14:22:15;;;;;;;6.38;2.50;;;;;;;;;;6273256;22;20659;-79
2021/01/13 14:24:41;;;;;;;7.85;2.70;;;;;;;;;;6273801;22;20029;-80
2021/01/13 14:27:07;;;;;;;6.60;2.28;;;;;;;;;;6301071;22;19999;-78
2021/01/13 14:29:33;;;;;;;7.15;2.63;;;;;;;;;;6273593;22;20010;-79
2021/01/13 14:31:59;;;;;;;5.60;2.30;;;;;;;;;;6273431;22;20015;-79
2021/01/13 14:34:25;;;;;;;5.95;2.67;;;;;;;;;;6269638;22;20007;-79
2021/01/13 14:36:58;;;;;;;7.28;2.35;;;;;;;;;;6300984;22;20320;-79
2021/01/13 14:39:24;;;;;;;10.77;3.78;;;;;;;;;;6301507;22;20451;-79